Time;durP1;ratioP1;P1;durP2;ratioP2;P2;SDS_P1;SDS_P2;PMS_P1;PMS_P2;Temp;Humidity;BMP_temperature;BMP_pressure;BME280_temperature;BME280_humidity;BME280_pressure;Samples;Min_cycle;Max_cycle;Signal;HPM_P1;HPM_P2
2021/12/27 00:01:12;;;;;;;23.40;13.97;;;4.40;76.00;;;;;;5070537;28;20032;-65
2021/12/27 00:03:38;;;;;;;23.63;14.25;;;4.40;76.00;;;;;;5072660;28;20038;-65
2021/12/27 00:06:09;;;;;;;23.20;15.03;;;4.40;75.90;;;;;;5071159;28;20016;-65
2021/12/27 00:08:39;;;;;;;22.67;14.13;;;4.50;76.00;;;;;;5069446;28;20063;-65
2021/12/27 00:11:04;;;;;;;22.30;12.80;;;4.50;76.00;;;;;;5071348;28;20103;-65
2021/12/27 00:13:30;;;;;;;21.63;13.37;;;4.50;76.10;;;;;;5071725;28;20422;-65
2021/12/27 00:15:56;;;;;;;24.73;14.97;;;4.50;76.10;;;;;;5070743;28;21312;-65
2021/12/27 00:18:21;;;;;;;23.60;14.57;;;4.50;76.20;;;;;;5072409;28;20021;-65
2021/12/27 00:20:47;;;;;;;23.70;13.47;;;4.50;76.30;;;;;;5054452;28;20043;-65
2021/12/27 00:23:12;;;;;;;23.20;14.23;;;4.50;76.40;;;;;;5071995;28;20190;-65
2021/12/27 00:25:38;;;;;;;21.27;12.57;;;4.40;76.40;;;;;;5057737;28;20052;-65
2021/12/27 00:28:04;;;;;;;24.63;14.67;;;4.50;76.50;;;;;;5075231;28;20027;-65
2021/12/27 00:30:29;;;;;;;25.67;15.03;;;4.40;76.50;;;;;;5075346;28;20044;-65
2021/12/27 00:32:55;;;;;;;22.13;12.90;;;4.50;76.70;;;;;;5076618;28;20040;-65
2021/12/27 00:35:25;;;;;;;22.07;14.30;;;4.40;76.80;;;;;;5075945;28;20070;-65
2021/12/27 00:37:52;;;;;;;22.77;13.17;;;4.50;76.80;;;;;;5076408;28;20036;-65
2021/12/27 00:40:18;;;;;;;23.67;14.30;;;4.50;76.80;;;;;;5075506;28;20028;-65
2021/12/27 00:42:44;;;;;;;23.43;13.47;;;4.50;76.80;;;;;;5076250;28;20089;-65
2021/12/27 00:45:11;;;;;;;24.83;15.20;;;4.50;76.80;;;;;;5076595;28;20031;-65
2021/12/27 00:47:37;;;;;;;21.83;13.63;;;4.50;76.90;;;;;;5076114;28;20036;-65
2021/12/27 00:50:04;;;;;;;19.80;13.10;;;4.50;76.90;;;;;;5075014;28;20434;-65
2021/12/27 00:52:32;;;;;;;22.43;13.83;;;4.50;76.80;;;;;;5072642;28;20083;-65
2021/12/27 00:54:59;;;;;;;26.77;14.40;;;4.50;76.90;;;;;;5059925;28;20036;-65
2021/12/27 00:57:24;;;;;;;22.37;14.07;;;4.60;76.90;;;;;;5076106;28;20027;-65
2021/12/27 00:59:50;;;;;;;22.50;13.30;;;4.60;76.90;;;;;;5075641;28;20440;-65
2021/12/27 01:02:16;;;;;;;22.73;14.67;;;4.60;76.90;;;;;;5076207;28;20028;-65
2021/12/27 01:04:41;;;;;;;23.40;14.03;;;4.50;77.00;;;;;;5076406;28;20039;-65
2021/12/27 01:07:07;;;;;;;22.13;14.10;;;4.60;77.10;;;;;;5076151;28;20047;-65
2021/12/27 01:09:52;;;;;;;23.43;14.17;;;4.60;77.00;;;;;;5076520;28;20166;-66
2021/12/27 01:12:32;;;;;;;22.37;13.67;;;4.60;77.00;;;;;;5075334;28;20040;-66
2021/12/27 01:15:12;;;;;;;22.03;14.13;;;4.60;77.00;;;;;;5075460;28;20392;-65
2021/12/27 01:17:39;;;;;;;23.30;14.77;;;4.60;77.00;;;;;;5056587;28;20052;-65
2021/12/27 01:20:10;;;;;;;25.13;13.10;;;4.60;77.00;;;;;;5072306;28;20032;-65
2021/12/27 01:22:37;;;;;;;21.77;12.85;;;4.60;77.10;;;;;;5058939;28;20103;-65
2021/12/27 01:25:05;;;;;;;23.37;14.40;;;4.60;77.10;;;;;;5058005;28;20170;-65
2021/12/27 01:27:32;;;;;;;21.97;13.90;;;4.60;77.10;;;;;;5075955;28;20132;-65
2021/12/27 01:29:57;;;;;;;20.73;12.77;;;4.60;77.20;;;;;;5075858;28;20052;-65
2021/12/27 01:32:25;;;;;;;22.10;13.33;;;4.60;77.20;;;;;;5058122;28;20078;-65
2021/12/27 01:34:51;;;;;;;21.50;13.37;;;4.70;77.30;;;;;;5075108;28;20449;-65
2021/12/27 01:37:18;;;;;;;22.17;13.67;;;4.70;77.30;;;;;;5074651;28;20040;-65
2021/12/27 01:39:45;;;;;;;21.90;13.40;;;4.70;77.40;;;;;;5074494;28;20033;-65
2021/12/27 01:42:11;;;;;;;21.60;14.50;;;4.60;77.30;;;;;;5075469;28;20033;-65
2021/12/27 01:44:36;;;;;;;21.23;13.87;;;4.60;77.40;;;;;;5057697;28;20025;-65
2021/12/27 01:47:02;;;;;;;20.23;12.53;;;4.70;77.50;;;;;;5070778;28;20119;-65
2021/12/27 01:49:28;;;;;;;23.40;13.60;;;4.70;77.50;;;;;;5075520;28;20044;-65
2021/12/27 01:51:53;;;;;;;19.83;13.00;;;4.70;77.60;;;;;;5074704;28;20029;-65
2021/12/27 01:54:19;;;;;;;19.53;12.57;;;4.70;77.50;;;;;;5074419;28;20031;-65
2021/12/27 01:56:45;;;;;;;27.67;12.83;;;4.60;77.50;;;;;;5074743;28;20068;-65
2021/12/27 01:59:10;;;;;;;24.50;14.23;;;4.70;77.60;;;;;;5073911;28;20039;-65
2021/12/27 02:01:36;;;;;;;22.60;14.53;;;4.70;77.70;;;;;;5075234;28;20029;-65
2021/12/27 02:04:02;;;;;;;22.63;13.53;;;4.70;77.70;;;;;;5074701;28;20041;-65
2021/12/27 02:06:28;;;;;;;21.53;13.43;;;4.70;77.70;;;;;;5073883;28;20349;-65
2021/12/27 02:08:54;;;;;;;23.93;13.93;;;4.70;77.80;;;;;;5074197;28;20108;-65
2021/12/27 02:11:20;;;;;;;23.17;14.37;;;4.70;77.90;;;;;;5074068;28;20032;-67
2021/12/27 02:13:47;;;;;;;22.07;13.37;;;4.70;77.90;;;;;;5075032;28;20024;-65
2021/12/27 02:16:19;;;;;;;21.87;13.33;;;4.70;78.00;;;;;;5073522;28;20028;-65
2021/12/27 02:18:45;;;;;;;20.77;13.33;;;4.70;78.00;;;;;;5057052;28;20037;-65
2021/12/27 02:21:12;;;;;;;23.70;14.07;;;4.70;78.00;;;;;;5074540;28;20464;-65
2021/12/27 02:23:40;;;;;;;20.50;12.73;;;4.70;78.10;;;;;;5057091;28;20036;-65
2021/12/27 02:26:06;;;;;;;19.27;12.37;;;4.70;78.20;;;;;;5074833;28;20480;-65
2021/12/27 02:28:32;;;;;;;23.23;13.00;;;4.70;78.80;;;;;;5053829;28;20025;-65
2021/12/27 02:30:58;;;;;;;22.43;13.33;;;4.70;78.20;;;;;;5074686;28;20080;-65
2021/12/27 02:33:24;;;;;;;20.50;13.10;;;4.80;78.30;;;;;;5057015;28;20067;-66
2021/12/27 02:35:57;;;;;;;25.40;14.40;;;4.70;78.30;;;;;;5074883;28;20028;-65
2021/12/27 02:38:30;;;;;;;20.27;13.20;;;4.80;78.40;;;;;;5073685;28;20040;-65
2021/12/27 02:40:56;;;;;;;23.67;14.60;;;4.80;78.40;;;;;;5057136;28;20028;-65
2021/12/27 02:43:25;;;;;;;22.67;13.87;;;4.80;78.40;;;;;;5073203;28;20040;-65
2021/12/27 02:45:56;;;;;;;22.10;13.67;;;4.80;79.10;;;;;;5073317;28;20064;-65
2021/12/27 02:48:26;;;;;;;23.38;15.30;;;4.80;78.40;;;;;;5073800;28;20467;-65
2021/12/27 02:50:54;;;;;;;23.27;14.50;;;4.80;78.50;;;;;;5072986;28;20028;-65
2021/12/27 02:53:20;;;;;;;20.67;13.37;;;4.80;78.50;;;;;;5073079;28;20044;-65
2021/12/27 02:55:52;;;;;;;20.40;12.63;;;4.80;78.50;;;;;;5073135;28;20037;-66
2021/12/27 02:58:18;;;;;;;23.20;13.38;;;4.80;78.60;;;;;;5073645;28;20087;-65
2021/12/27 03:00:53;;;;;;;22.07;12.80;;;4.80;78.50;;;;;;5073531;28;20055;-65
2021/12/27 03:03:19;;;;;;;22.17;13.43;;;4.90;78.60;;;;;;5073094;28;20479;-65
2021/12/27 03:05:46;;;;;;;21.87;13.63;;;4.80;78.50;;;;;;5053430;28;20035;-65
2021/12/27 03:08:16;;;;;;;22.97;13.37;;;4.80;78.60;;;;;;5066816;28;20185;-65
2021/12/27 03:10:48;;;;;;;23.73;13.87;;;4.90;78.70;;;;;;5074288;28;20121;-64
2021/12/27 03:13:17;;;;;;;;;;;4.90;78.70;;;;;;5072938;28;20036;-65
2021/12/27 03:15:44;;;;;;;20.80;12.03;;;4.90;78.60;;;;;;5074235;28;19908;-65
2021/12/27 03:18:11;;;;;;;20.83;12.10;;;4.90;78.60;;;;;;5073039;28;20086;-65
2021/12/27 03:20:37;;;;;;;20.40;12.40;;;4.90;78.70;;;;;;5074313;28;20262;-65
2021/12/27 03:23:03;;;;;;;20.23;12.63;;;4.80;78.60;;;;;;5073903;28;20024;-65
2021/12/27 03:25:28;;;;;;;20.40;12.43;;;4.90;78.80;;;;;;5073048;28;20031;-65
2021/12/27 03:27:54;;;;;;;22.23;13.47;;;4.90;78.90;;;;;;5073642;28;20028;-65
2021/12/27 03:30:23;;;;;;;20.53;12.70;;;4.90;78.90;;;;;;5072914;28;20127;-65
2021/12/27 03:32:48;;;;;;;22.33;13.73;;;4.90;78.90;;;;;;5072701;28;20047;-65
2021/12/27 03:35:18;;;;;;;20.13;12.60;;;4.90;78.90;;;;;;5073928;28;20029;-65
2021/12/27 03:37:47;;;;;;;21.00;13.17;;;4.90;78.90;;;;;;5074028;28;20017;-65
2021/12/27 03:40:15;;;;;;;21.07;13.60;;;5.00;79.00;;;;;;5072875;28;20108;-65
2021/12/27 03:42:41;;;;;;;22.27;12.40;;;5.00;79.00;;;;;;5073220;28;20033;-65
2021/12/27 03:45:08;;;;;;;21.03;12.57;;;5.00;79.10;;;;;;5056104;28;20021;-65
2021/12/27 03:47:35;;;;;;;23.10;12.57;;;5.00;79.20;;;;;;5056003;28;20048;-65
2021/12/27 03:50:01;;;;;;;21.07;13.70;;;5.00;79.20;;;;;;5072573;28;20028;-64
2021/12/27 03:52:27;;;;;;;27.50;13.53;;;5.00;79.20;;;;;;5073944;28;20043;-65
2021/12/27 03:54:52;;;;;;;23.03;13.77;;;5.00;79.20;;;;;;5072548;28;20370;-65
2021/12/27 03:57:18;;;;;;;20.43;12.30;;;5.00;79.30;;;;;;5072874;28;20047;-65
2021/12/27 04:02:16;;;;;;;23.40;13.10;;;5.00;79.30;;;;;;5077084;28;20040;-65
2021/12/27 04:04:42;;;;;;;23.37;14.43;;;5.00;79.30;;;;;;5076468;28;20402;-65
2021/12/27 04:07:10;;;;;;;21.93;13.50;;;5.10;79.40;;;;;;5077861;28;20052;-65
2021/12/27 04:09:36;;;;;;;23.17;13.43;;;5.10;79.40;;;;;;5077175;28;20377;-65
2021/12/27 04:12:03;;;;;;;20.23;12.47;;;5.10;79.40;;;;;;5077581;28;20035;-65
2021/12/27 04:14:29;;;;;;;26.27;14.17;;;5.10;79.50;;;;;;5059481;28;20429;-65
2021/12/27 04:16:55;;;;;;;22.50;13.43;;;5.10;80.10;;;;;;5076676;28;20107;-65
2021/12/27 04:19:21;;;;;;;22.67;12.57;;;5.10;79.60;;;;;;5077054;28;20059;-65
2021/12/27 04:21:47;;;;;;;23.90;14.00;;;5.10;79.60;;;;;;5076625;28;20054;-65
2021/12/27 04:24:13;;;;;;;21.93;14.10;;;5.10;79.70;;;;;;5076253;28;20059;-65
2021/12/27 04:26:38;;;;;;;21.80;14.17;;;5.10;79.70;;;;;;5077256;28;20421;-65
2021/12/27 04:29:05;;;;;;;23.47;14.07;;;5.10;79.80;;;;;;5075548;28;20025;-65
2021/12/27 04:31:31;;;;;;;26.67;14.73;;;5.10;79.80;;;;;;5077379;28;20106;-65
2021/12/27 04:33:56;;;;;;;22.03;12.90;;;5.10;79.90;;;;;;5059357;28;20036;-65
2021/12/27 04:36:22;;;;;;;28.47;14.80;;;5.10;79.90;;;;;;5076178;28;20033;-65
2021/12/27 04:38:49;;;;;;;28.10;13.40;;;5.20;80.00;;;;;;5076140;28;20040;-65
2021/12/27 04:41:18;;;;;;;24.77;14.63;;;5.20;80.00;;;;;;5076429;28;20043;-65
2021/12/27 04:43:44;;;;;;;22.17;14.30;;;5.10;80.10;;;;;;5055362;28;20025;-66
2021/12/27 04:46:09;;;;;;;29.93;14.40;;;5.20;80.10;;;;;;5075829;28;20090;-65
2021/12/27 04:48:35;;;;;;;25.03;13.93;;;5.20;80.10;;;;;;5075800;28;20750;-65
2021/12/27 04:51:00;;;;;;;28.77;14.83;;;5.20;80.10;;;;;;5076770;28;20031;-65
2021/12/27 04:53:26;;;;;;;29.87;15.07;;;5.20;80.10;;;;;;5076893;28;20024;-64
2021/12/27 04:55:52;;;;;;;27.30;14.17;;;5.20;80.20;;;;;;5076364;28;20111;-65
2021/12/27 04:58:21;;;;;;;27.93;14.50;;;5.20;80.20;;;;;;5076801;28;20064;-65
2021/12/27 05:00:47;;;;;;;27.23;15.23;;;5.20;80.30;;;;;;5075147;28;20028;-65
2021/12/27 05:03:12;;;;;;;30.83;15.07;;;5.30;80.30;;;;;;5076891;28;20039;-65
2021/12/27 05:05:41;;;;;;;26.40;13.80;;;5.30;81.00;;;;;;5075182;28;20028;-65
2021/12/27 05:08:07;;;;;;;27.97;15.43;;;5.30;80.40;;;;;;5075840;28;20059;-64
2021/12/27 05:10:33;;;;;;;23.67;14.63;;;5.30;80.50;;;;;;5074509;28;20052;-65
2021/12/27 05:12:59;;;;;;;26.00;12.97;;;5.30;80.50;;;;;;5075122;28;20376;-64
2021/12/27 05:15:25;;;;;;;26.87;15.63;;;5.30;80.50;;;;;;5074761;28;20024;-65
2021/12/27 05:17:51;;;;;;;32.37;16.00;;;5.30;80.50;;;;;;5076475;28;20357;-65
2021/12/27 05:20:16;;;;;;;29.93;15.67;;;5.30;80.60;;;;;;5075294;28;20040;-65
2021/12/27 05:22:42;;;;;;;25.20;14.67;;;5.30;80.60;;;;;;5075085;28;20020;-65
2021/12/27 05:25:11;;;;;;;25.40;14.27;;;5.30;80.60;;;;;;5075819;28;20129;-65
2021/12/27 05:27:41;;;;;;;24.27;14.60;;;5.30;80.70;;;;;;5075244;28;20036;-65
2021/12/27 05:30:08;;;;;;;27.67;15.40;;;5.40;80.70;;;;;;5075685;28;20052;-65
2021/12/27 05:32:35;;;;;;;25.67;14.43;;;5.40;80.70;;;;;;5058816;28;20127;-65
2021/12/27 05:35:02;;;;;;;25.03;15.37;;;5.40;80.60;;;;;;5074727;28;20039;-64
2021/12/27 05:37:28;;;;;;;23.73;13.27;;;5.40;80.70;;;;;;5075422;28;20058;-65
2021/12/27 05:39:53;;;;;;;24.10;14.50;;;5.40;80.70;;;;;;5074408;28;20528;-65
2021/12/27 05:42:19;;;;;;;23.73;14.10;;;5.40;80.80;;;;;;5075823;28;20039;-65
2021/12/27 05:44:45;;;;;;;25.83;13.93;;;5.40;80.80;;;;;;5074302;28;20025;-65
2021/12/27 05:47:10;;;;;;;27.07;15.50;;;5.40;80.80;;;;;;5075033;28;20361;-65
2021/12/27 05:49:36;;;;;;;21.40;13.67;;;5.40;80.90;;;;;;5074285;28;20017;-66
2021/12/27 05:52:01;;;;;;;22.00;14.13;;;5.40;80.90;;;;;;5074583;28;20032;-66
2021/12/27 05:54:27;;;;;;;24.90;14.63;;;5.40;80.90;;;;;;5074062;28;20063;-65
2021/12/27 05:56:53;;;;;;;21.97;14.00;;;5.40;80.90;;;;;;5055727;28;20102;-66
2021/12/27 05:59:18;;;;;;;21.83;13.97;;;5.40;81.00;;;;;;5057243;28;20111;-66
2021/12/27 06:01:45;;;;;;;23.00;14.67;;;5.40;81.00;;;;;;5074182;28;20028;-66
2021/12/27 06:04:11;;;;;;;23.07;13.97;;;5.40;81.00;;;;;;5074565;28;20033;-66
2021/12/27 06:06:37;;;;;;;24.13;14.33;;;5.40;81.00;;;;;;5074302;28;20032;-66
2021/12/27 06:09:05;;;;;;;22.67;14.83;;;5.40;81.00;;;;;;5056821;28;20031;-65
2021/12/27 06:11:30;;;;;;;24.73;14.20;;;5.40;81.00;;;;;;5074690;28;20028;-66
2021/12/27 06:13:56;;;;;;;19.97;13.00;;;5.40;81.00;;;;;;5074045;28;20039;-65
2021/12/27 06:16:22;;;;;;;24.50;15.60;;;5.40;81.00;;;;;;5073453;28;20039;-65
2021/12/27 06:18:48;;;;;;;25.80;16.10;;;5.50;81.10;;;;;;5072878;28;20032;-65
2021/12/27 06:21:14;;;;;;;22.27;13.27;;;5.40;81.10;;;;;;5072846;28;20032;-66
2021/12/27 06:23:39;;;;;;;25.30;14.57;;;5.50;81.20;;;;;;5073566;28;20043;-65
2021/12/27 06:26:05;;;;;;;23.17;13.57;;;5.50;81.20;;;;;;5074124;28;20115;-65
2021/12/27 06:28:32;;;;;;;21.70;14.07;;;5.50;81.20;;;;;;5073643;28;20028;-65
2021/12/27 06:30:59;;;;;;;26.60;14.27;;;5.50;81.20;;;;;;5073758;28;20354;-65
2021/12/27 06:33:25;;;;;;;21.67;13.73;;;5.50;81.20;;;;;;5074310;28;20089;-65
2021/12/27 06:35:50;;;;;;;23.13;14.07;;;5.60;81.30;;;;;;5072554;28;20453;-65
2021/12/27 06:38:16;;;;;;;21.07;12.47;;;5.60;81.20;;;;;;5073908;28;20065;-65
2021/12/27 06:40:42;;;;;;;23.87;13.80;;;5.60;81.20;;;;;;5076234;28;20039;-65
2021/12/27 06:43:07;;;;;;;24.40;13.80;;;5.60;81.20;;;;;;5056424;28;20058;-65
2021/12/27 06:45:33;;;;;;;21.67;13.37;;;5.60;81.30;;;;;;5074750;28;20070;-65
2021/12/27 06:47:58;;;;;;;21.83;13.43;;;5.60;81.40;;;;;;5074013;28;20051;-65
2021/12/27 06:50:24;;;;;;;23.60;13.93;;;5.60;81.40;;;;;;5074523;28;20027;-65
2021/12/27 06:52:50;;;;;;;21.80;14.07;;;5.60;81.40;;;;;;5073640;28;20346;-66
2021/12/27 06:55:16;;;;;;;28.80;14.43;;;5.70;81.50;;;;;;5073861;28;20039;-65
2021/12/27 06:57:42;;;;;;;24.97;15.90;;;5.70;81.50;;;;;;5072733;28;20455;-65
2021/12/27 07:00:11;;;;;;;24.43;14.57;;;5.70;81.50;;;;;;5074370;28;20115;-65
2021/12/27 07:02:37;;;;;;;24.07;15.30;;;5.70;81.50;;;;;;5047625;28;20056;-66
2021/12/27 07:05:04;;;;;;;24.43;14.27;;;5.70;81.50;;;;;;5061275;28;20345;-65
2021/12/27 07:07:29;;;;;;;26.80;13.80;;;5.80;81.50;;;;;;5073388;28;20395;-65
2021/12/27 07:09:55;;;;;;;24.10;14.67;;;5.80;81.60;;;;;;5074372;28;20107;-64
2021/12/27 07:12:21;;;;;;;27.20;16.27;;;5.80;81.70;;;;;;5074175;28;20025;-64
2021/12/27 07:14:48;;;;;;;24.63;15.57;;;5.80;81.60;;;;;;5074203;28;20063;-65
2021/12/27 07:17:14;;;;;;;23.30;13.43;;;5.80;81.60;;;;;;5073111;28;20037;-65
2021/12/27 07:19:40;;;;;;;28.50;16.03;;;5.80;81.70;;;;;;5073116;28;20039;-65
2021/12/27 07:22:06;;;;;;;26.57;14.53;;;5.80;81.70;;;;;;5073380;28;20086;-64
2021/12/27 07:24:32;;;;;;;27.53;15.43;;;5.80;81.70;;;;;;5072154;28;20353;-65
2021/12/27 07:26:57;;;;;;;25.73;14.63;;;5.90;81.80;;;;;;5069993;28;20048;-65
2021/12/27 07:29:23;;;;;;;29.43;15.43;;;5.90;81.80;;;;;;5072374;28;20036;-64
2021/12/27 07:31:49;;;;;;;29.63;15.83;;;5.90;81.80;;;;;;5072565;28;20056;-64
2021/12/27 07:34:17;;;;;;;27.17;15.03;;;5.90;81.80;;;;;;5072863;28;20366;-66
2021/12/27 07:36:43;;;;;;;23.77;15.30;;;5.90;81.80;;;;;;5055754;28;20139;-65
2021/12/27 07:39:09;;;;;;;29.13;15.77;;;5.90;81.80;;;;;;5072422;28;20062;-65
2021/12/27 07:41:35;;;;;;;27.13;14.67;;;5.90;81.80;;;;;;5072412;28;20054;-65
2021/12/27 07:44:03;;;;;;;24.00;13.40;;;5.90;81.80;;;;;;5072456;28;20029;-65
2021/12/27 07:46:29;;;;;;;24.57;14.63;;;5.90;81.90;;;;;;5072964;28;20342;-66
2021/12/27 07:48:55;;;;;;;25.53;15.43;;;5.90;81.90;;;;;;5074418;28;20050;-66
2021/12/27 07:51:20;;;;;;;25.83;14.80;;;6.00;81.90;;;;;;5074502;28;20028;-66
2021/12/27 07:53:46;;;;;;;23.60;13.97;;;6.00;81.90;;;;;;5073254;28;20369;-66
2021/12/27 07:56:12;;;;;;;26.03;13.93;;;6.00;81.90;;;;;;5073238;28;20032;-66
2021/12/27 07:58:38;;;;;;;22.27;13.57;;;6.00;82.00;;;;;;5074157;28;20028;-66
2021/12/27 08:01:04;;;;;;;25.23;13.90;;;6.00;82.00;;;;;;5074118;28;20097;-65
2021/12/27 08:03:30;;;;;;;24.27;14.17;;;6.00;82.00;;;;;;5073257;28;20055;-66
2021/12/27 08:05:55;;;;;;;22.93;13.80;;;6.00;82.10;;;;;;5074375;28;20058;-66
2021/12/27 08:08:21;;;;;;;27.13;13.87;;;6.10;82.10;;;;;;5073205;28;20075;-65
2021/12/27 08:10:47;;;;;;;22.60;13.13;;;6.00;82.00;;;;;;5073116;28;20033;-65
2021/12/27 08:13:12;;;;;;;23.23;13.57;;;6.00;82.00;;;;;;5072350;28;20033;-65
2021/12/27 08:15:38;;;;;;;25.63;14.97;;;6.00;82.10;;;;;;5074002;28;20032;-66
2021/12/27 08:18:04;;;;;;;19.30;11.67;;;6.10;82.20;;;;;;5072523;28;20081;-65
2021/12/27 08:20:30;;;;;;;23.13;14.20;;;6.00;82.10;;;;;;5073703;28;20170;-64
2021/12/27 08:22:56;;;;;;;22.43;13.20;;;6.10;82.20;;;;;;5073165;28;20024;-65
2021/12/27 08:25:22;;;;;;;20.83;13.03;;;6.10;82.10;;;;;;5074139;28;20035;-65
2021/12/27 08:27:49;;;;;;;22.53;12.73;;;6.10;82.10;;;;;;5074156;28;20039;-65
2021/12/27 08:30:15;;;;;;;21.97;13.50;;;6.10;82.20;;;;;;5072973;28;20040;-65
2021/12/27 08:32:42;;;;;;;19.67;13.30;;;6.20;82.20;;;;;;5073971;28;20059;-65
2021/12/27 08:35:10;;;;;;;25.73;13.20;;;6.20;82.20;;;;;;5074016;28;20036;-65
2021/12/27 08:37:36;;;;;;;22.37;13.50;;;6.20;82.20;;;;;;5074068;28;20040;-65
2021/12/27 08:40:02;;;;;;;21.93;12.90;;;6.20;82.20;;;;;;5073942;28;20057;-65
2021/12/27 08:42:28;;;;;;;21.93;14.10;;;6.20;82.20;;;;;;5073664;28;20036;-65
2021/12/27 08:44:54;;;;;;;19.40;11.97;;;6.30;82.30;;;;;;5074684;28;20016;-65
2021/12/27 08:47:19;;;;;;;21.77;13.20;;;6.30;82.30;;;;;;5077264;28;20025;-65
2021/12/27 08:49:45;;;;;;;21.17;12.70;;;6.30;82.20;;;;;;5059384;28;20365;-65
2021/12/27 08:52:11;;;;;;;23.23;13.50;;;6.30;82.20;;;;;;5077164;28;20059;-65
2021/12/27 08:54:37;;;;;;;19.57;12.60;;;6.30;82.20;;;;;;5075719;28;20036;-65
2021/12/27 08:57:05;;;;;;;20.87;12.83;;;6.40;82.30;;;;;;5076215;28;20036;-65
2021/12/27 08:59:31;;;;;;;21.77;12.77;;;6.40;82.20;;;;;;5075705;28;20082;-65
2021/12/27 09:01:58;;;;;;;19.67;13.03;;;6.40;82.20;;;;;;5077270;28;20385;-65
2021/12/27 09:04:24;;;;;;;18.43;11.83;;;6.40;82.20;;;;;;5076989;28;20024;-64
2021/12/27 09:06:50;;;;;;;21.07;13.27;;;6.40;82.20;;;;;;5075633;28;20036;-65
2021/12/27 09:09:16;;;;;;;19.23;12.73;;;6.40;82.20;;;;;;5076220;28;20365;-64
2021/12/27 09:11:42;;;;;;;20.97;12.47;;;6.40;82.20;;;;;;5075779;28;20032;-65
2021/12/27 09:14:08;;;;;;;22.77;11.97;;;6.50;82.30;;;;;;5058829;28;20653;-65
2021/12/27 09:16:34;;;;;;;17.63;11.27;;;6.50;82.30;;;;;;5075785;28;20060;-65
2021/12/27 09:19:00;;;;;;;20.10;11.53;;;6.50;82.30;;;;;;5075477;28;20054;-65
2021/12/27 09:21:25;;;;;;;15.97;10.57;;;6.50;82.30;;;;;;5074916;28;20104;-65
2021/12/27 09:23:51;;;;;;;17.97;11.50;;;6.50;82.30;;;;;;5075261;28;20028;-65
2021/12/27 09:26:17;;;;;;;16.13;10.33;;;6.50;82.40;;;;;;5076722;28;20028;-65
2021/12/27 09:28:43;;;;;;;15.93;10.97;;;6.50;82.40;;;;;;5058654;28;20040;-65
2021/12/27 09:31:08;;;;;;;16.97;10.80;;;6.60;82.50;;;;;;5074831;28;20135;-64
2021/12/27 09:33:34;;;;;;;19.87;12.17;;;6.60;82.50;;;;;;5076287;28;20030;-65
2021/12/27 09:36:00;;;;;;;17.43;11.17;;;6.60;82.50;;;;;;5075251;28;20062;-65
2021/12/27 09:38:25;;;;;;;16.03;10.17;;;6.60;82.50;;;;;;5075807;28;20041;-65
2021/12/27 09:40:51;;;;;;;16.70;11.07;;;6.60;82.50;;;;;;5073599;28;20036;-65
2021/12/27 09:43:17;;;;;;;18.27;10.73;;;6.60;82.50;;;;;;5058504;28;20043;-66
2021/12/27 09:45:42;;;;;;;18.57;10.70;;;6.70;82.50;;;;;;5075207;28;20108;-66
2021/12/27 09:48:08;;;;;;;16.07;10.23;;;6.70;82.50;;;;;;5075770;28;20337;-65
2021/12/27 09:50:47;;;;;;;19.10;9.20;;;6.70;82.40;;;;;;5074073;28;20464;-66
2021/12/27 09:53:13;;;;;;;19.03;10.43;;;6.80;82.50;;;;;;5075197;28;20113;-66
2021/12/27 09:55:38;;;;;;;16.77;10.57;;;6.80;82.40;;;;;;5073829;28;20437;-65
2021/12/27 09:58:05;;;;;;;19.23;12.03;;;6.80;82.30;;;;;;5075115;28;20032;-65
2021/12/27 10:00:31;;;;;;;17.50;10.27;;;6.90;82.30;;;;;;5057298;28;20024;-65
2021/12/27 10:02:58;;;;;;;18.60;11.53;;;6.90;82.90;;;;;;5075191;28;20033;-65
2021/12/27 10:05:27;;;;;;;15.10;9.83;;;7.00;82.20;;;;;;5075208;28;20078;-65
2021/12/27 10:07:53;;;;;;;17.40;10.77;;;7.10;82.10;;;;;;5074246;28;20028;-66
2021/12/27 10:10:18;;;;;;;17.43;10.10;;;7.20;82.00;;;;;;5073968;28;20358;-65
2021/12/27 10:12:45;;;;;;;16.33;10.07;;;7.30;81.80;;;;;;5057669;28;20036;-65
2021/12/27 10:15:18;;;;;;;16.10;10.30;;;7.30;81.70;;;;;;5074969;28;20059;-65
2021/12/27 10:17:45;;;;;;;17.57;9.67;;;7.40;81.60;;;;;;5074718;28;20041;-65
2021/12/27 10:20:15;;;;;;;15.97;10.03;;;7.50;81.60;;;;;;5074695;28;20090;-64
2021/12/27 10:22:44;;;;;;;17.03;10.43;;;7.50;81.50;;;;;;5053748;28;20032;-65
2021/12/27 10:25:21;;;;;;;17.03;11.47;;;7.50;81.50;;;;;;5056867;28;20349;-65
2021/12/27 10:27:49;;;;;;;16.70;10.10;;;7.50;81.60;;;;;;5073467;28;20042;-65
2021/12/27 10:30:18;;;;;;;17.47;10.97;;;7.50;81.50;;;;;;5073441;28;20052;-65
2021/12/27 10:33:00;;;;;;;16.93;10.67;;;7.50;81.60;;;;;;5074334;28;20032;-65
2021/12/27 10:35:37;;;;;;;15.83;10.67;;;7.50;81.60;;;;;;5075385;28;20475;-65
2021/12/27 10:38:24;;;;;;;14.80;9.93;;;7.50;81.70;;;;;;5075129;28;20032;-66
2021/12/27 10:41:00;;;;;;;12.73;8.40;;;7.50;81.60;;;;;;5075176;28;20028;-65
2021/12/27 10:43:56;;;;;;;17.20;9.70;;;7.50;81.70;;;;;;5073564;28;20032;-65
2021/12/27 10:46:22;;;;;;;15.93;9.77;;;7.60;81.70;;;;;;5074986;28;20029;-65
2021/12/27 10:48:57;;;;;;;15.87;9.97;;;7.60;81.70;;;;;;5057317;28;20486;-65
2021/12/27 10:51:28;;;;;;;16.67;9.40;;;7.60;81.70;;;;;;5056632;28;20021;-66
2021/12/27 10:53:56;;;;;;;16.02;9.55;;;7.60;81.70;;;;;;5074404;28;20040;-65
2021/12/27 10:56:25;;;;;;;15.73;10.17;;;7.60;81.70;;;;;;5073329;28;20028;-66
2021/12/27 10:59:00;;;;;;;14.90;9.73;;;7.60;81.70;;;;;;5074979;28;20418;-65
2021/12/27 11:01:27;;;;;;;14.43;9.03;;;7.70;81.70;;;;;;5074713;28;20040;-65
2021/12/27 11:04:00;;;;;;;14.40;9.07;;;7.70;81.60;;;;;;5073661;28;20063;-65
2021/12/27 11:06:30;;;;;;;14.77;9.30;;;7.80;81.60;;;;;;5073467;28;20365;-65
2021/12/27 11:08:58;;;;;;;12.93;8.00;;;7.80;81.50;;;;;;5072713;28;20024;-66
2021/12/27 11:11:26;;;;;;;15.30;8.90;;;7.90;81.50;;;;;;5074713;28;20029;-65
2021/12/27 11:13:57;;;;;;;13.47;8.47;;;7.90;81.50;;;;;;5057324;28;20066;-65
2021/12/27 11:16:23;;;;;;;14.43;8.77;;;8.00;81.30;;;;;;5053780;28;20033;-65
2021/12/27 11:18:50;;;;;;;16.60;8.57;;;8.20;81.00;;;;;;5069818;28;20028;-66
2021/12/27 11:21:18;;;;;;;16.13;9.13;;;8.30;80.80;;;;;;5056585;28;20082;-66
2021/12/27 11:23:47;;;;;;;13.07;8.10;;;8.40;80.60;;;;;;5074227;28;20032;-66
2021/12/27 11:26:20;;;;;;;13.10;8.18;;;8.40;80.60;;;;;;5073060;28;20028;-66
2021/12/27 11:28:46;;;;;;;12.80;7.90;;;8.30;80.70;;;;;;5072475;28;20024;-66
2021/12/27 11:31:24;;;;;;;13.93;8.73;;;8.30;80.70;;;;;;5072208;28;20051;-66
2021/12/27 11:34:03;;;;;;;13.20;7.53;;;8.30;80.80;;;;;;5068123;28;20452;-66
2021/12/27 11:36:32;;;;;;;19.93;8.70;;;8.30;80.90;;;;;;5071619;28;20028;-65
2021/12/27 11:39:16;;;;;;;13.02;7.78;;;8.30;80.90;;;;;;5067224;28;20090;-65
2021/12/27 11:41:42;;;;;;;13.02;7.85;;;8.30;81.00;;;;;;5073817;28;20449;-65
2021/12/27 11:44:20;;;;;;;20.47;14.07;;;8.30;80.90;;;;;;5073930;28;20098;-65
2021/12/27 11:46:48;;;;;;;14.80;8.83;;;8.40;81.70;;;;;;5073119;28;20124;-66
2021/12/27 11:49:33;;;;;;;13.75;7.70;;;8.30;81.00;;;;;;5073093;28;20036;-65
2021/12/27 11:52:29;;;;;;;13.80;7.97;;;8.30;80.90;;;;;;5056446;28;20028;-65
2021/12/27 11:55:11;;;;;;;13.60;8.00;;;8.40;81.00;;;;;;5069735;28;20356;-66
2021/12/27 11:57:44;;;;;;;13.57;7.60;;;8.40;81.00;;;;;;5072933;28;20032;-68
2021/12/27 12:00:16;;;;;;;13.15;7.72;;;8.40;81.00;;;;;;5072391;28;20028;-66
2021/12/27 12:02:42;;;;;;;14.85;8.73;;;8.40;81.00;;;;;;5073306;28;20128;-66
2021/12/27 12:05:08;;;;;;;14.97;8.10;;;8.40;80.90;;;;;;5074096;28;20041;-65
2021/12/27 12:07:33;;;;;;;11.77;7.70;;;8.40;81.00;;;;;;5056019;28;20021;-66
2021/12/27 12:10:00;;;;;;;13.87;7.47;;;8.40;81.00;;;;;;5056459;28;20094;-65
2021/12/27 12:12:28;;;;;;;14.73;7.47;;;8.50;81.10;;;;;;5073696;28;20052;-65
2021/12/27 12:14:55;;;;;;;11.80;6.75;;;8.50;81.00;;;;;;5054149;28;20025;-65
2021/12/27 12:17:38;;;;;;;13.83;7.73;;;8.50;81.00;;;;;;5071534;28;20099;-66
2021/12/27 12:20:04;;;;;;;13.18;7.53;;;8.60;81.00;;;;;;5076795;28;20068;-64
2021/12/27 12:22:35;;;;;;;14.93;8.30;;;8.60;80.90;;;;;;5078361;28;20020;-65
2021/12/27 12:25:18;;;;;;;13.35;8.05;;;8.70;80.90;;;;;;5071995;28;20025;-65
2021/12/27 12:27:51;;;;;;;13.85;8.38;;;8.70;80.90;;;;;;5048088;28;20126;-66
2021/12/27 12:30:17;;;;;;;12.82;7.55;;;8.70;80.90;;;;;;5059043;28;20068;-66
2021/12/27 12:32:59;;;;;;;13.38;7.28;;;8.70;80.90;;;;;;5059870;28;20024;-66
2021/12/27 12:35:41;;;;;;;14.45;6.72;;;8.70;81.00;;;;;;5076408;28;20453;-65
2021/12/27 12:38:16;;;;;;;12.02;6.93;;;8.70;81.10;;;;;;5075024;28;20119;-65
2021/12/27 12:40:56;;;;;;;15.73;8.98;;;8.70;81.10;;;;;;5063684;28;20036;-65
2021/12/27 12:43:42;;;;;;;12.10;7.57;;;8.60;81.10;;;;;;5076795;28;20028;-65